createdAt,value
2019-05-18T00:17:29.495Z,27.95
2019-05-18T00:32:37.486Z,35.03
2019-05-18T00:47:45.331Z,34.73
2019-05-18T01:02:52.485Z,19.00
2019-05-18T01:18:02.343Z,25.68
2019-05-18T01:33:09.886Z,18.67
2019-05-18T01:48:18.327Z,19.67
2019-05-18T02:03:26.049Z,24.57
2019-05-18T02:18:33.097Z,13.93
2019-05-18T02:33:40.961Z,15.18
2019-05-18T02:48:50.677Z,13.83
2019-05-18T03:03:57.675Z,28.83
2019-05-18T03:19:08.949Z,16.87
2019-05-18T03:34:15.601Z,24.43
2019-05-18T03:49:27.497Z,11.18
2019-05-18T04:04:35.052Z,10.48
2019-05-18T04:19:46.837Z,10.90
2019-05-18T04:34:52.235Z,21.70
2019-05-18T04:50:05.649Z,13.50
2019-05-18T05:05:10.505Z,12.18
2019-05-18T05:20:20.129Z,8.63
2019-05-18T05:35:29.765Z,9.00
2019-05-18T05:50:36.888Z,6.05
2019-05-18T06:05:43.720Z,9.85
2019-05-18T06:20:52.111Z,15.03
2019-05-18T06:35:59.421Z,13.05
2019-05-18T07:06:14.028Z,10.68
2019-05-18T07:21:22.646Z,8.55
2019-05-18T07:36:29.921Z,6.67
2019-05-18T07:51:39.098Z,7.92
2019-05-18T08:06:46.624Z,5.67
2019-05-18T08:21:54.496Z,4.97
2019-05-18T08:37:01.701Z,3.75
2019-05-18T08:52:08.934Z,6.78
2019-05-18T09:07:16.389Z,5.12
2019-05-18T09:22:24.300Z,5.55
2019-05-18T09:37:31.448Z,5.17
2019-05-18T09:52:45.213Z,5.25
2019-05-18T10:07:49.416Z,4.83
2019-05-18T10:23:11.817Z,5.55
2019-05-18T10:38:05.014Z,4.67
2019-05-18T10:53:27.442Z,7.17
2019-05-18T11:08:20.310Z,6.62
2019-05-18T11:23:42.516Z,5.92
2019-05-18T11:38:38.805Z,6.40
2019-05-18T11:53:57.475Z,7.80
2019-05-18T12:08:58.110Z,6.37
2019-05-18T12:24:14.763Z,6.78
2019-05-18T12:39:13.619Z,5.00
2019-05-18T12:54:29.504Z,5.28
2019-05-18T13:09:32.983Z,4.75
2019-05-18T13:24:45.387Z,6.90
2019-05-18T13:39:54.153Z,6.28
2019-05-18T13:55:05.184Z,5.22
2019-05-18T14:10:13.552Z,7.72
2019-05-18T14:25:24.020Z,9.08
2019-05-18T14:40:30.947Z,8.70
2019-05-18T14:55:38.782Z,7.05
2019-05-18T15:10:45.443Z,7.10
2019-05-18T15:25:52.659Z,6.97
2019-05-18T15:40:59.703Z,6.78
2019-05-18T15:56:06.704Z,8.35
2019-05-18T16:11:13.436Z,10.72
2019-05-18T16:26:22.188Z,8.20
2019-05-18T16:41:29.916Z,5.45
2019-05-18T16:56:37.680Z,6.53
2019-05-18T17:11:48.025Z,12.07
2019-05-18T17:26:56.145Z,9.68
2019-05-18T17:42:05.410Z,15.95
2019-05-18T17:57:12.603Z,20.15
2019-05-18T18:12:19.502Z,22.37
2019-05-18T18:42:35.378Z,22.13
2019-05-18T18:57:42.554Z,34.03
2019-05-18T19:12:49.591Z,23.18
2019-05-18T19:27:57.610Z,27.62
2019-05-18T19:43:04.647Z,31.02
2019-05-18T19:58:12.768Z,30.50
2019-05-18T20:13:20.135Z,31.65
2019-05-18T20:28:29.551Z,42.20
2019-05-18T20:43:37.431Z,27.70
2019-05-18T20:58:44.689Z,22.35
2019-05-18T21:13:51.654Z,18.82
2019-05-18T21:29:00.975Z,19.05
2019-05-18T21:44:08.168Z,17.55
2019-05-18T22:14:22.284Z,17.90
2019-05-18T22:29:29.420Z,21.48
2019-05-18T22:44:36.435Z,14.38
2019-05-18T22:59:45.722Z,20.10
2019-05-18T23:14:52.588Z,21.25
2019-05-18T23:29:59.622Z,15.70
2019-05-18T23:45:10.258Z,11.70
